Aérodrome :
LOGIN :

S'inscrire | Disclaimer

   EN    FR    IT 

 










Légende :    VFR   VFR Marginal   IFR   IFR Intensif   IFR Très Intensif
Visi : 
Plafond : 
>= 8 km
>= 3000ft
5 à 8 km
1000 à 3000 ft
1500m à 5 km
500 à 1000 ft
800 à 1500m
200 à 500 ft
< 800m
< 200 ft
Symboles :   Orages  Brouillard  Fortes neiges  Fortes précipitations  Vent > 20 kt
SIGMETs :   Divers  Orages  Givrage  Turbulence  Onde Orograph.  Cendres Volcan.






- Altitude de l'aérodrome : 154 ft
- Code IATA : SZZ


EPSC - Szczecin Goleniow

DERNIER METAR :
  • 230200Z VRB01KT 9999 MIFG NSC 11/10 Q1017

METARs EXPIRÉS :
  • 230130Z 08001KT 9999 MIFG NSC 11/10 Q1017
  • 230100Z VRB01KT 9999 MIFG NSC 12/11 Q1017
  • 230030Z VRB01KT 9999 MIFG NSC 11/10 Q1017
  • 230000Z VRB01KT 9999 MIFG NSC 12/11 Q1017
  • 222330Z VRB02KT 9999 MIFG NSC 12/11 Q1017
  • 222300Z 00000KT CAVOK 13/13 Q1017
  • 222230Z VRB01KT CAVOK 13/13 Q1016
  • 222200Z VRB02KT CAVOK 13/13 Q1017
  • 222130Z 00000KT CAVOK 15/14 Q1016

TAF TAF EPSC
Valide du 23 à 00h jusqu'au 24 à 00h UTC


222330Z 2300/2324 VRB02KT CAVOK
PROB30
TEMPO 2300/2305 4000 BR
PROB40
TEMPO 2311/2318 SCT040TCU
TEMPO 2318/2324 10015G25KT 3000 TSRA BKN012 BKN025CB



MET'MAP, la Météo Aéronautique d'un coup d'oeil ! - Copyright ORBIFLY Décembre 2007 - Disclaimer

ORBIFLY MET'MAP TEAM :

Programmation & Développement : Alexandra Zaïnal
Sur une idée originale de : Baudouin d'Aumeries
Soutien technique & logistique : Manuel Goepfert
Assistance : Marc-Olivier Méhu




SOURCES & CREDITS :

   NOAA